Time;durP1;ratioP1;P1;durP2;ratioP2;P2;SDS_P1;SDS_P2;PMS_P1;PMS_P2;Temp;Humidity;BMP_temperature;BMP_pressure;BME280_temperature;BME280_humidity;BME280_pressure;Samples;Min_cycle;Max_cycle;Signal;HPM_P1;HPM_P2
2024/01/14 00:01:08;;;;;;;63.20;27.30;;;-2.30;99.90;;;;;;503057;236;27945;-66
2024/01/14 00:03:09;;;;;;;66.12;28.10;;;-2.30;99.90;;;;;;503098;236;27545;-65
2024/01/14 00:05:11;;;;;;;66.53;28.55;;;-2.30;99.90;;;;;;503045;236;27447;-65
2024/01/14 00:07:12;;;;;;;67.75;29.73;;;-2.30;99.90;;;;;;503087;236;27478;-65
2024/01/14 00:09:13;;;;;;;68.03;28.60;;;-2.50;99.90;;;;;;502951;236;27521;-65
2024/01/14 00:11:14;;;;;;;66.20;27.83;;;-2.40;99.90;;;;;;503045;236;27459;-65
2024/01/14 00:13:16;;;;;;;65.47;28.92;;;-2.40;99.90;;;;;;503106;236;28083;-66
2024/01/14 00:15:18;;;;;;;68.82;28.17;;;-2.30;99.90;;;;;;503062;236;27453;-65
2024/01/14 00:17:18;;;;;;;73.20;30.37;;;-2.30;99.90;;;;;;503009;236;27553;-65
2024/01/14 00:19:19;;;;;;;69.97;28.75;;;-2.30;99.90;;;;;;503114;236;27456;-65
2024/01/14 00:21:21;;;;;;;64.22;27.45;;;-2.30;99.90;;;;;;503094;236;27466;-65
2024/01/14 00:23:22;;;;;;;71.62;29.05;;;-2.30;99.90;;;;;;503115;236;27473;-65
2024/01/14 00:25:23;;;;;;;60.05;28.17;;;-2.20;99.90;;;;;;503020;236;27979;-66
2024/01/14 00:27:24;;;;;;;70.03;27.42;;;-2.30;99.90;;;;;;503109;236;29148;-65
2024/01/14 00:29:26;;;;;;;69.60;28.58;;;-2.30;99.90;;;;;;503100;236;27492;-65
2024/01/14 00:31:27;;;;;;;64.85;28.67;;;-2.30;99.90;;;;;;503121;236;27523;-66
2024/01/14 00:33:28;;;;;;;66.40;26.87;;;-2.30;99.90;;;;;;503134;236;27566;-65
2024/01/14 00:35:29;;;;;;;70.20;29.83;;;-2.30;99.90;;;;;;503079;236;27442;-65
2024/01/14 00:37:31;;;;;;;75.37;30.05;;;-2.20;99.90;;;;;;503106;236;28009;-65
2024/01/14 00:39:32;;;;;;;64.95;28.67;;;-2.30;99.90;;;;;;503133;236;28022;-66
2024/01/14 00:41:33;;;;;;;68.82;28.65;;;-2.30;99.90;;;;;;503101;236;27500;-65
2024/01/14 00:43:35;;;;;;;66.85;26.75;;;-2.20;99.90;;;;;;503090;236;27502;-66
2024/01/14 00:45:36;;;;;;;65.50;28.87;;;-2.30;99.90;;;;;;503077;236;27439;-65
2024/01/14 00:47:37;;;;;;;67.72;28.87;;;-2.30;99.90;;;;;;503086;236;27479;-66
2024/01/14 00:49:38;;;;;;;65.97;28.23;;;-2.30;99.90;;;;;;503087;236;27984;-66
2024/01/14 00:51:40;;;;;;;64.75;28.60;;;-2.30;99.90;;;;;;503071;236;27901;-65
2024/01/14 00:53:41;;;;;;;64.28;27.50;;;-2.40;99.90;;;;;;503095;236;27502;-65
2024/01/14 00:55:42;;;;;;;72.97;31.92;;;-2.40;99.90;;;;;;503068;236;27501;-65
2024/01/14 00:57:43;;;;;;;69.70;28.40;;;-2.40;99.90;;;;;;502978;236;27449;-65
2024/01/14 00:59:45;;;;;;;70.97;29.98;;;-2.40;99.90;;;;;;503088;236;27490;-66
2024/01/14 01:01:46;;;;;;;65.57;29.25;;;-2.50;99.90;;;;;;503081;236;27455;-65
2024/01/14 01:03:47;;;;;;;66.50;27.75;;;-2.50;99.90;;;;;;502880;236;27949;-65
2024/01/14 01:05:48;;;;;;;68.05;29.33;;;-2.40;99.90;;;;;;503012;236;27978;-66
2024/01/14 01:07:50;;;;;;;73.50;28.90;;;-2.50;99.90;;;;;;503098;236;27447;-65
2024/01/14 01:09:51;;;;;;;71.60;31.10;;;-2.50;99.90;;;;;;502947;236;27489;-66
2024/01/14 01:11:52;;;;;;;65.75;27.27;;;-2.40;99.90;;;;;;502440;236;27482;-64
2024/01/14 01:13:53;;;;;;;69.43;30.25;;;-2.40;99.90;;;;;;501806;236;27556;-65
2024/01/14 01:15:55;;;;;;;74.30;27.92;;;-2.40;99.90;;;;;;502095;236;28352;-66
2024/01/14 01:17:56;;;;;;;72.03;29.40;;;-2.50;99.90;;;;;;502556;236;28028;-65
2024/01/14 01:19:57;;;;;;;71.62;30.08;;;-2.40;99.90;;;;;;502904;236;27469;-65
2024/01/14 01:21:58;;;;;;;66.82;29.83;;;-2.50;99.90;;;;;;503080;236;27593;-65
2024/01/14 01:24:00;;;;;;;67.95;28.92;;;-2.50;99.90;;;;;;503069;236;27512;-65
2024/01/14 01:26:01;;;;;;;68.95;30.62;;;-2.50;99.90;;;;;;503050;236;27477;-65
2024/01/14 01:28:02;;;;;;;80.75;29.05;;;-2.50;99.90;;;;;;503062;236;27959;-65
2024/01/14 01:30:03;;;;;;;74.65;30.65;;;-2.40;99.90;;;;;;503081;236;29107;-65
2024/01/14 01:32:05;;;;;;;69.07;28.52;;;-2.50;99.90;;;;;;503081;236;27549;-66
2024/01/14 01:34:06;;;;;;;78.30;29.75;;;-2.40;99.90;;;;;;503062;236;27434;-65
2024/01/14 01:36:07;;;;;;;79.60;30.30;;;-2.40;99.90;;;;;;503057;236;27495;-65
2024/01/14 01:38:09;;;;;;;73.00;29.37;;;-2.50;99.90;;;;;;503079;236;27472;-65
2024/01/14 01:40:10;;;;;;;73.45;29.17;;;-2.70;99.90;;;;;;503085;236;27445;-65
2024/01/14 01:42:11;;;;;;;71.70;29.77;;;-2.70;99.90;;;;;;503054;236;27978;-66
2024/01/14 01:44:12;;;;;;;75.30;30.52;;;-2.60;99.90;;;;;;503056;236;27569;-65
2024/01/14 01:46:14;;;;;;;77.20;29.55;;;-2.70;99.90;;;;;;503074;236;27492;-65
2024/01/14 01:48:15;;;;;;;75.00;29.23;;;-2.60;99.90;;;;;;503078;236;27521;-66
2024/01/14 01:50:16;;;;;;;78.75;30.88;;;-2.70;99.90;;;;;;503076;236;27358;-65
2024/01/14 01:52:17;;;;;;;70.32;28.75;;;-2.60;99.90;;;;;;503058;236;27477;-66
2024/01/14 01:54:19;;;;;;;74.53;31.08;;;-2.60;99.90;;;;;;503020;236;27914;-65
2024/01/14 01:56:20;;;;;;;75.35;29.27;;;-2.60;99.90;;;;;;503089;236;28998;-65
2024/01/14 01:58:21;;;;;;;73.35;30.65;;;-2.70;99.90;;;;;;503080;236;27465;-65
2024/01/14 02:00:22;;;;;;;82.80;29.12;;;-2.70;99.90;;;;;;503105;236;27477;-65
2024/01/14 02:02:24;;;;;;;80.10;29.90;;;-2.70;99.90;;;;;;503098;236;27446;-65
2024/01/14 02:04:25;;;;;;;65.22;28.48;;;-2.60;99.90;;;;;;503047;236;27838;-66
2024/01/14 02:06:26;;;;;;;77.65;31.00;;;-2.60;99.90;;;;;;503117;236;27902;-65
2024/01/14 02:08:27;;;;;;;71.93;29.45;;;-2.70;99.90;;;;;;503074;236;29037;-65
2024/01/14 02:10:29;;;;;;;77.20;29.92;;;-2.70;99.90;;;;;;503100;236;27447;-65
2024/01/14 02:12:30;;;;;;;77.50;30.65;;;-2.70;99.90;;;;;;503062;236;27548;-65
2024/01/14 02:14:31;;;;;;;88.45;31.40;;;-2.70;99.90;;;;;;503036;236;27450;-66
2024/01/14 02:16:32;;;;;;;79.60;32.10;;;-2.70;99.90;;;;;;503089;236;27487;-65
2024/01/14 02:18:34;;;;;;;90.18;31.95;;;-2.80;99.90;;;;;;503105;236;27480;-65
2024/01/14 02:20:35;;;;;;;69.47;29.50;;;-2.80;99.90;;;;;;503109;236;27904;-65
2024/01/14 02:22:36;;;;;;;78.32;29.37;;;-2.80;99.90;;;;;;503106;236;27426;-65
2024/01/14 02:24:38;;;;;;;79.22;30.42;;;-2.80;99.90;;;;;;503067;236;27549;-66
2024/01/14 02:26:39;;;;;;;90.95;32.13;;;-2.70;99.90;;;;;;503100;236;27512;-65
2024/01/14 02:28:40;;;;;;;103.60;34.25;;;-2.70;99.90;;;;;;503100;236;27476;-65
2024/01/14 02:30:43;;;;;;;91.65;32.40;;;-2.80;99.90;;;;;;503073;236;27907;-66
2024/01/14 02:32:43;;;;;;;85.05;31.55;;;-2.90;99.90;;;;;;502981;236;27954;-65
2024/01/14 02:34:44;;;;;;;78.15;30.40;;;-3.00;99.90;;;;;;503057;236;27477;-65
2024/01/14 02:36:45;;;;;;;75.65;30.20;;;-2.90;99.90;;;;;;503120;236;27448;-65
2024/01/14 02:38:46;;;;;;;84.53;32.38;;;-2.80;99.90;;;;;;502879;236;27471;-65
2024/01/14 02:40:48;;;;;;;87.68;31.85;;;-2.90;99.90;;;;;;503107;236;27591;-68
2024/01/14 02:42:49;;;;;;;94.25;31.42;;;-2.90;99.90;;;;;;503094;236;27437;-65
2024/01/14 02:44:50;;;;;;;94.85;33.70;;;-2.90;99.90;;;;;;503050;236;27915;-65
2024/01/14 02:46:51;;;;;;;90.80;32.10;;;-3.00;99.90;;;;;;503088;236;29002;-66
2024/01/14 02:48:53;;;;;;;86.87;32.88;;;-3.00;99.90;;;;;;503101;236;27472;-65
2024/01/14 02:50:54;;;;;;;90.80;32.67;;;-3.00;99.90;;;;;;503094;236;27493;-65
2024/01/14 02:52:55;;;;;;;95.60;31.65;;;-2.90;99.90;;;;;;503079;236;27466;-65
2024/01/14 02:54:56;;;;;;;88.53;33.78;;;-2.80;99.90;;;;;;503051;236;27532;-65
2024/01/14 02:56:58;;;;;;;83.07;30.65;;;-2.80;99.90;;;;;;503080;236;28453;-67
2024/01/14 02:58:59;;;;;;;76.68;31.37;;;-2.80;99.90;;;;;;503116;236;28999;-65
2024/01/14 03:01:00;;;;;;;81.60;29.02;;;-2.80;99.90;;;;;;503099;236;27556;-66
2024/01/14 03:03:01;;;;;;;85.38;31.90;;;-2.70;99.90;;;;;;503116;236;27425;-65
2024/01/14 03:05:03;;;;;;;68.60;29.67;;;-2.70;99.90;;;;;;503025;236;27473;-65
2024/01/14 03:07:04;;;;;;;87.00;31.58;;;-2.70;99.90;;;;;;503118;236;27570;-66
2024/01/14 03:09:06;;;;;;;85.00;30.67;;;-2.80;99.90;;;;;;503046;236;27575;-65
2024/01/14 03:11:06;;;;;;;77.05;31.70;;;-2.70;99.90;;;;;;503063;236;27965;-66
2024/01/14 03:13:08;;;;;;;100.20;34.65;;;-2.70;99.90;;;;;;503072;236;27419;-65
2024/01/14 03:15:09;;;;;;;88.53;29.87;;;-2.80;99.90;;;;;;503018;236;27526;-65
2024/01/14 03:17:10;;;;;;;137.88;34.53;;;-2.80;99.90;;;;;;503082;236;27535;-66
2024/01/14 03:19:12;;;;;;;88.18;31.70;;;-2.80;99.90;;;;;;503103;236;27441;-65
2024/01/14 03:21:13;;;;;;;85.55;30.75;;;-2.90;99.90;;;;;;502967;236;27581;-65
2024/01/14 03:23:14;;;;;;;87.43;31.20;;;-2.80;99.90;;;;;;503101;236;28046;-66
2024/01/14 03:25:15;;;;;;;76.00;30.30;;;-2.80;99.90;;;;;;503026;236;27529;-66
2024/01/14 03:27:17;;;;;;;79.82;29.92;;;-2.70;99.90;;;;;;503097;236;27474;-65
2024/01/14 03:29:18;;;;;;;75.70;29.12;;;-2.70;99.90;;;;;;503099;236;27553;-65
2024/01/14 03:31:19;;;;;;;74.15;28.60;;;-2.60;99.90;;;;;;503024;236;27595;-65
2024/01/14 03:33:20;;;;;;;74.10;29.75;;;-2.60;99.90;;;;;;503112;236;27543;-66
2024/01/14 03:35:22;;;;;;;81.82;32.30;;;-2.60;99.90;;;;;;503031;236;27963;-65
2024/01/14 03:37:23;;;;;;;83.50;29.48;;;-2.50;99.90;;;;;;503098;236;27951;-66
2024/01/14 03:39:24;;;;;;;79.35;30.20;;;-2.50;99.90;;;;;;503094;236;27438;-65
2024/01/14 03:41:26;;;;;;;80.25;30.02;;;-2.50;99.90;;;;;;503085;236;27437;-65
2024/01/14 03:43:27;;;;;;;75.47;28.85;;;-2.50;99.90;;;;;;503115;236;27490;-66
2024/01/14 03:45:28;;;;;;;73.62;29.05;;;-2.50;99.90;;;;;;502987;236;27537;-65
2024/01/14 03:47:29;;;;;;;84.28;31.20;;;-2.50;99.90;;;;;;503053;236;27931;-65
2024/01/14 03:49:30;;;;;;;78.35;31.10;;;-2.40;99.90;;;;;;503111;236;28114;-65
2024/01/14 03:51:32;;;;;;;79.35;31.08;;;-2.50;99.90;;;;;;503090;236;27557;-65
2024/01/14 03:53:33;;;;;;;82.62;30.73;;;-2.50;99.90;;;;;;503005;236;27567;-65
2024/01/14 03:55:34;;;;;;;80.35;30.15;;;-2.50;99.90;;;;;;503010;236;27501;-65
2024/01/14 03:57:35;;;;;;;77.00;29.85;;;-2.60;99.90;;;;;;503053;236;27490;-65
2024/01/14 03:59:37;;;;;;;77.97;29.10;;;-2.60;99.90;;;;;;503081;236;27504;-66
2024/01/14 04:01:38;;;;;;;83.07;30.98;;;-2.60;99.90;;;;;;503074;236;27913;-65
2024/01/14 04:03:39;;;;;;;84.65;29.63;;;-2.60;99.90;;;;;;503106;236;27477;-65
2024/01/14 04:05:40;;;;;;;92.10;32.92;;;-2.60;99.90;;;;;;503034;236;27443;-65
2024/01/14 04:07:42;;;;;;;68.70;27.20;;;-2.60;99.90;;;;;;503101;236;27509;-65
2024/01/14 04:09:43;;;;;;;76.22;28.70;;;-2.60;99.90;;;;;;503108;236;27493;-65
2024/01/14 04:11:44;;;;;;;89.32;32.17;;;-2.50;99.90;;;;;;503076;236;27530;-65
2024/01/14 04:13:46;;;;;;;94.22;34.13;;;-2.50;99.90;;;;;;503108;236;28067;-65
2024/01/14 04:15:47;;;;;;;83.47;31.65;;;-2.60;99.90;;;;;;503057;236;28141;-67
2024/01/14 04:17:48;;;;;;;85.12;30.73;;;-2.60;99.90;;;;;;503110;236;27459;-65
2024/01/14 04:19:49;;;;;;;87.70;32.03;;;-2.50;99.90;;;;;;503097;236;27582;-66
2024/01/14 04:21:51;;;;;;;73.47;27.90;;;-2.60;99.90;;;;;;503097;236;27454;-66
2024/01/14 04:23:52;;;;;;;73.35;28.42;;;-2.60;99.90;;;;;;503076;236;27481;-66
2024/01/14 04:25:53;;;;;;;90.47;29.48;;;-2.60;99.90;;;;;;503061;236;27947;-66
2024/01/14 04:27:54;;;;;;;85.18;29.77;;;-2.50;99.90;;;;;;503105;236;29008;-65
2024/01/14 04:29:56;;;;;;;81.15;28.90;;;-2.60;99.90;;;;;;503130;236;27472;-65
2024/01/14 04:31:57;;;;;;;75.95;29.75;;;-2.60;99.90;;;;;;503062;236;27442;-65
2024/01/14 04:33:59;;;;;;;74.53;29.42;;;-2.70;99.90;;;;;;503106;236;27565;-65
2024/01/14 04:36:01;;;;;;;72.32;27.50;;;-2.60;99.90;;;;;;502957;236;27482;-66
2024/01/14 04:38:01;;;;;;;78.03;29.48;;;-2.60;99.90;;;;;;502991;236;28180;-65
2024/01/14 04:40:02;;;;;;;75.90;28.90;;;-2.70;99.90;;;;;;503086;236;27966;-66
2024/01/14 04:42:03;;;;;;;81.43;29.95;;;-2.70;99.90;;;;;;503097;236;27407;-66
2024/01/14 04:44:04;;;;;;;76.55;30.40;;;-2.60;99.90;;;;;;503001;236;27445;-65
2024/01/14 04:46:06;;;;;;;88.78;32.75;;;-2.60;99.90;;;;;;503054;236;27479;-66
2024/01/14 04:48:07;;;;;;;85.53;30.70;;;-2.60;99.90;;;;;;503086;236;27375;-65
2024/01/14 04:50:08;;;;;;;91.80;30.50;;;-2.60;99.90;;;;;;503082;236;27389;-65
2024/01/14 04:52:10;;;;;;;79.15;30.52;;;-2.70;99.90;;;;;;503099;236;28076;-66
2024/01/14 04:54:11;;;;;;;83.55;29.83;;;-2.60;99.90;;;;;;503009;236;29003;-65
2024/01/14 04:56:12;;;;;;;90.25;31.35;;;-2.60;99.90;;;;;;503097;236;27477;-66
2024/01/14 04:58:13;;;;;;;71.47;29.60;;;-2.60;99.90;;;;;;503081;236;27540;-65
2024/01/14 05:00:15;;;;;;;80.12;29.40;;;-2.50;99.90;;;;;;503095;236;27487;-65
2024/01/14 05:02:16;;;;;;;91.82;31.95;;;-2.60;99.90;;;;;;503079;236;27500;-65
2024/01/14 05:04:17;;;;;;;74.80;29.40;;;-2.60;99.90;;;;;;503047;236;27968;-65
2024/01/14 05:06:18;;;;;;;79.37;29.00;;;-2.60;99.90;;;;;;503078;236;29129;-65
2024/01/14 05:08:20;;;;;;;84.18;29.42;;;-2.60;99.90;;;;;;503072;236;27479;-66
2024/01/14 05:10:21;;;;;;;76.45;29.30;;;-2.60;99.90;;;;;;503098;236;27446;-65
2024/01/14 05:12:22;;;;;;;85.72;30.50;;;-2.60;99.90;;;;;;503040;236;27484;-65
2024/01/14 05:14:23;;;;;;;92.30;32.33;;;-2.60;99.90;;;;;;503017;236;27481;-65
2024/01/14 05:16:25;;;;;;;88.05;29.80;;;-2.60;99.90;;;;;;503112;236;28020;-65
2024/01/14 05:18:26;;;;;;;86.03;27.75;;;-2.50;99.90;;;;;;503060;236;29063;-65
2024/01/14 05:20:27;;;;;;;81.47;29.05;;;-2.60;99.90;;;;;;503093;236;27427;-65
2024/01/14 05:22:28;;;;;;;92.65;29.95;;;-2.60;99.90;;;;;;503064;236;27607;-65
2024/01/14 05:24:30;;;;;;;82.18;30.45;;;-2.60;99.90;;;;;;503001;236;27564;-66
2024/01/14 05:26:31;;;;;;;80.22;30.77;;;-2.70;99.90;;;;;;503079;236;27553;-65
2024/01/14 05:28:32;;;;;;;68.57;26.60;;;-2.60;99.90;;;;;;503039;236;27484;-65
2024/01/14 05:30:34;;;;;;;81.57;28.73;;;-2.70;99.90;;;;;;503067;236;28009;-65
2024/01/14 05:32:35;;;;;;;73.55;27.30;;;-2.60;99.90;;;;;;503050;236;29107;-65
2024/01/14 05:34:36;;;;;;;76.40;29.80;;;-2.60;99.90;;;;;;503024;236;27550;-66
2024/01/14 05:36:37;;;;;;;79.18;29.12;;;-2.60;99.90;;;;;;503086;236;27433;-65
2024/01/14 05:38:39;;;;;;;97.60;30.80;;;-2.60;99.90;;;;;;503081;236;27489;-66
2024/01/14 05:40:40;;;;;;;83.80;29.87;;;-2.70;99.90;;;;;;503066;236;27466;-65
2024/01/14 05:42:41;;;;;;;69.15;28.70;;;-2.70;99.90;;;;;;503074;236;27562;-66
2024/01/14 05:44:42;;;;;;;82.40;30.67;;;-2.70;99.90;;;;;;503059;236;27981;-65
2024/01/14 05:46:44;;;;;;;68.68;27.75;;;-2.70;99.90;;;;;;503097;236;27470;-65
2024/01/14 05:48:45;;;;;;;70.95;26.70;;;-2.70;99.90;;;;;;503053;236;27467;-65
2024/01/14 05:50:46;;;;;;;69.18;27.02;;;-2.70;99.90;;;;;;503097;236;27488;-66
2024/01/14 05:52:47;;;;;;;74.95;27.05;;;-2.70;99.90;;;;;;503054;236;27434;-65
2024/01/14 05:54:49;;;;;;;85.40;30.10;;;-2.70;99.90;;;;;;503036;236;27561;-66
2024/01/14 05:56:50;;;;;;;66.70;27.13;;;-2.60;99.90;;;;;;503084;236;27989;-65
2024/01/14 05:58:51;;;;;;;70.55;28.02;;;-2.70;99.90;;;;;;503079;236;29013;-65
2024/01/14 06:00:52;;;;;;;66.57;26.30;;;-2.70;99.90;;;;;;503089;236;27489;-66
2024/01/14 06:02:54;;;;;;;86.37;28.65;;;-2.70;99.90;;;;;;503071;236;27463;-65
2024/01/14 06:04:55;;;;;;;75.10;28.50;;;-2.70;99.90;;;;;;503023;236;27489;-66
2024/01/14 06:06:56;;;;;;;73.87;27.17;;;-2.60;99.90;;;;;;503022;236;27545;-65
2024/01/14 06:08:57;;;;;;;72.43;26.80;;;-2.60;99.90;;;;;;503060;236;27915;-65
2024/01/14 06:10:59;;;;;;;87.88;27.75;;;-2.60;99.90;;;;;;503100;236;29151;-66
2024/01/14 06:13:00;;;;;;;72.15;28.27;;;-2.60;99.90;;;;;;503077;236;27454;-64
2024/01/14 06:15:01;;;;;;;65.87;25.08;;;-2.60;99.90;;;;;;503056;236;27486;-65
2024/01/14 06:17:03;;;;;;;81.70;29.27;;;-2.60;99.90;;;;;;503095;236;27490;-66
2024/01/14 06:19:04;;;;;;;88.45;29.65;;;-2.60;99.90;;;;;;503140;236;27505;-65
2024/01/14 06:21:05;;;;;;;70.60;26.87;;;-2.70;99.90;;;;;;503112;236;28006;-65
2024/01/14 06:23:06;;;;;;;89.75;32.40;;;-2.70;99.90;;;;;;503122;236;28990;-66
2024/01/14 06:25:08;;;;;;;70.65;26.52;;;-2.70;99.90;;;;;;503083;236;27464;-65
2024/01/14 06:27:09;;;;;;;73.90;27.00;;;-2.80;99.90;;;;;;503119;236;27493;-66
2024/01/14 06:29:10;;;;;;;70.57;28.85;;;-2.80;99.90;;;;;;503130;236;27447;-65
2024/01/14 06:31:11;;;;;;;83.37;30.62;;;-2.80;99.90;;;;;;503124;236;27584;-65
2024/01/14 06:33:13;;;;;;;70.97;27.67;;;-2.80;99.90;;;;;;503138;236;27449;-65
2024/01/14 06:35:14;;;;;;;75.93;27.77;;;-2.80;99.90;;;;;;502642;236;27998;-65
2024/01/14 06:37:15;;;;;;;66.82;26.12;;;-2.80;99.90;;;;;;503100;236;27486;-65
2024/01/14 06:39:16;;;;;;;74.53;27.55;;;-2.80;99.90;;;;;;503093;236;27444;-65
2024/01/14 06:41:18;;;;;;;75.35;26.95;;;-2.80;99.90;;;;;;502975;236;27467;-65
2024/01/14 06:43:19;;;;;;;82.15;29.75;;;-2.80;99.90;;;;;;502946;236;27584;-66
2024/01/14 06:45:21;;;;;;;79.72;28.45;;;-2.80;99.90;;;;;;503069;236;27937;-65
2024/01/14 06:47:21;;;;;;;80.65;28.85;;;-2.70;99.90;;;;;;503098;236;29023;-64
2024/01/14 06:49:23;;;;;;;91.57;30.70;;;-2.80;99.90;;;;;;503130;236;27431;-65
2024/01/14 06:51:24;;;;;;;70.80;27.75;;;-2.70;99.90;;;;;;503089;236;27486;-65
2024/01/14 06:53:25;;;;;;;67.47;27.90;;;-2.80;99.90;;;;;;503109;236;27563;-66
2024/01/14 06:55:27;;;;;;;73.50;26.73;;;-2.70;99.90;;;;;;503064;236;27467;-65
2024/01/14 06:57:28;;;;;;;81.70;28.75;;;-2.80;99.90;;;;;;503087;236;28039;-65
2024/01/14 06:59:29;;;;;;;75.40;27.17;;;-2.70;99.90;;;;;;503104;236;29151;-66
2024/01/14 07:01:30;;;;;;;81.10;28.08;;;-2.70;99.90;;;;;;503073;236;27443;-65
2024/01/14 07:03:32;;;;;;;67.37;27.55;;;-2.80;99.90;;;;;;502950;236;27479;-66
2024/01/14 07:05:33;;;;;;;70.43;27.62;;;-2.80;99.90;;;;;;503059;236;27457;-65
2024/01/14 07:07:34;;;;;;;79.30;28.35;;;-2.90;99.90;;;;;;503111;236;27548;-65
2024/01/14 07:09:35;;;;;;;57.05;23.27;;;-2.80;99.90;;;;;;503103;236;27471;-65
2024/01/14 07:11:37;;;;;;;67.85;23.45;;;-2.80;99.90;;;;;;503106;236;27541;-65
2024/01/14 07:13:39;;;;;;;68.07;24.00;;;-2.90;99.90;;;;;;503084;236;28047;-66
2024/01/14 07:15:39;;;;;;;66.80;25.12;;;-2.90;99.90;;;;;;503053;236;28044;-65
2024/01/14 07:17:40;;;;;;;64.95;24.35;;;-2.90;99.90;;;;;;503076;236;27428;-65
2024/01/14 07:19:42;;;;;;;54.58;22.48;;;-2.80;99.90;;;;;;503098;236;27476;-66
2024/01/14 07:21:43;;;;;;;54.40;22.33;;;-2.90;99.90;;;;;;503090;236;27551;-65
2024/01/14 07:23:44;;;;;;;61.28;23.38;;;-2.80;99.90;;;;;;503093;236;27603;-66
2024/01/14 07:25:46;;;;;;;56.97;22.40;;;-2.80;99.90;;;;;;503051;236;27509;-66
2024/01/14 07:27:47;;;;;;;53.38;20.83;;;-2.90;99.90;;;;;;503073;236;27878;-65
2024/01/14 07:29:48;;;;;;;51.72;20.35;;;-2.90;99.90;;;;;;502996;236;27555;-65
2024/01/14 07:31:49;;;;;;;56.75;23.17;;;-3.00;99.90;;;;;;502999;236;27551;-65
2024/01/14 07:33:51;;;;;;;49.40;20.85;;;-3.00;99.90;;;;;;503046;236;27525;-65
2024/01/14 07:35:52;;;;;;;55.10;21.67;;;-3.00;99.90;;;;;;503022;236;27490;-66
2024/01/14 07:37:53;;;;;;;56.58;21.80;;;-2.90;99.90;;;;;;503038;236;27498;-65
2024/01/14 07:39:54;;;;;;;50.50;20.98;;;-2.90;99.90;;;;;;503030;236;27961;-65
2024/01/14 07:41:56;;;;;;;57.95;21.75;;;-3.00;99.90;;;;;;502997;236;29130;-66
2024/01/14 07:43:57;;;;;;;56.45;21.65;;;-3.00;99.90;;;;;;503065;236;27446;-65
2024/01/14 07:45:58;;;;;;;53.33;20.02;;;-3.00;99.90;;;;;;503050;236;27561;-65
2024/01/14 07:47:59;;;;;;;50.30;20.75;;;-2.90;99.90;;;;;;503108;236;27437;-65
2024/01/14 07:50:01;;;;;;;60.35;23.50;;;-2.90;99.90;;;;;;503063;236;27888;-65
2024/01/14 07:52:02;;;;;;;54.88;22.10;;;-2.90;99.90;;;;;;503091;236;29021;-65
2024/01/14 07:54:03;;;;;;;58.78;22.80;;;-2.90;99.90;;;;;;503046;236;27446;-65
2024/01/14 07:56:05;;;;;;;51.58;21.17;;;-2.90;99.90;;;;;;503018;236;27489;-64
2024/01/14 07:58:06;;;;;;;59.63;22.62;;;-2.90;99.90;;;;;;503055;236;27509;-66
2024/01/14 08:00:07;;;;;;;53.17;23.52;;;-2.90;99.90;;;;;;503118;236;27513;-65
2024/01/14 08:02:08;;;;;;;60.78;22.40;;;-3.00;99.90;;;;;;503069;236;27951;-66
2024/01/14 08:04:10;;;;;;;59.58;23.10;;;-2.90;99.90;;;;;;503071;236;29033;-67
2024/01/14 08:06:11;;;;;;;62.83;23.23;;;-3.10;99.90;;;;;;503113;236;27569;-65
2024/01/14 08:08:12;;;;;;;58.90;22.33;;;-2.90;99.90;;;;;;503101;236;27466;-66
2024/01/14 08:10:13;;;;;;;54.75;22.37;;;-2.90;99.90;;;;;;503056;236;27450;-65
2024/01/14 08:12:15;;;;;;;62.65;22.90;;;-2.90;99.90;;;;;;503087;236;27534;-66
2024/01/14 08:14:16;;;;;;;54.60;22.00;;;-2.80;99.90;;;;;;503052;236;27457;-65
2024/01/14 08:16:17;;;;;;;49.03;19.40;;;-2.80;99.90;;;;;;503102;236;27913;-65
2024/01/14 08:18:19;;;;;;;52.67;22.17;;;-2.80;99.90;;;;;;503071;236;29152;-66
2024/01/14 08:20:20;;;;;;;57.55;20.30;;;-2.70;99.90;;;;;;503075;236;27482;-64
2024/01/14 08:22:21;;;;;;;46.15;19.62;;;-2.90;99.90;;;;;;503092;236;27486;-65
2024/01/14 08:24:22;;;;;;;54.33;22.48;;;-3.00;99.90;;;;;;503038;236;27486;-66
2024/01/14 08:26:23;;;;;;;52.00;20.70;;;-3.00;99.90;;;;;;503095;236;27561;-65
2024/01/14 08:28:25;;;;;;;52.05;21.02;;;-2.90;99.90;;;;;;503094;236;27946;-66
2024/01/14 08:30:26;;;;;;;54.92;21.52;;;-2.90;99.90;;;;;;503090;236;27908;-65
2024/01/14 08:32:29;;;;;;;58.90;21.55;;;-2.90;99.90;;;;;;503081;236;27453;-65
2024/01/14 08:34:28;;;;;;;58.65;21.55;;;-2.80;99.90;;;;;;502881;236;27486;-67
2024/01/14 08:36:31;;;;;;;49.75;20.17;;;-2.80;99.90;;;;;;503092;236;27532;-65
2024/01/14 08:38:31;;;;;;;53.38;19.45;;;-2.80;99.90;;;;;;503058;236;27489;-65
2024/01/14 08:40:32;;;;;;;49.92;20.05;;;-2.80;99.90;;;;;;503095;236;27445;-65
2024/01/14 08:42:34;;;;;;;53.03;20.80;;;-2.80;99.90;;;;;;503080;236;27435;-65
2024/01/14 08:44:35;;;;;;;46.25;19.00;;;-2.80;99.90;;;;;;503057;236;27595;-65
2024/01/14 08:46:36;;;;;;;44.85;18.62;;;-2.90;99.90;;;;;;503084;236;27890;-65
2024/01/14 08:48:37;;;;;;;51.83;19.98;;;-2.90;99.90;;;;;;503067;236;29076;-65
2024/01/14 08:50:39;;;;;;;52.70;20.10;;;-2.90;99.90;;;;;;503095;236;27508;-65
2024/01/14 08:52:40;;;;;;;43.90;18.45;;;-2.90;99.90;;;;;;503106;236;27461;-65
2024/01/14 08:54:41;;;;;;;42.75;20.12;;;-2.90;99.90;;;;;;503056;236;27486;-65
2024/01/14 08:56:42;;;;;;;42.13;18.00;;;-2.80;99.90;;;;;;503112;236;27455;-65
2024/01/14 08:58:44;;;;;;;44.05;18.50;;;-2.80;99.90;;;;;;503070;236;28051;-65
2024/01/14 09:00:45;;;;;;;37.65;17.17;;;-2.80;99.90;;;;;;503114;236;29145;-66
2024/01/14 09:02:46;;;;;;;45.88;18.75;;;-2.70;99.90;;;;;;503057;236;27439;-65
2024/01/14 09:04:47;;;;;;;43.35;17.67;;;-2.70;99.90;;;;;;502880;236;27491;-65
2024/01/14 09:06:49;;;;;;;38.13;18.10;;;-2.60;99.90;;;;;;502945;236;27488;-65
2024/01/14 09:08:50;;;;;;;42.30;17.02;;;-2.60;99.90;;;;;;502825;236;27468;-65
2024/01/14 09:10:51;;;;;;;38.20;16.83;;;-2.60;99.90;;;;;;502092;236;28000;-65
2024/01/14 09:12:52;;;;;;;41.40;18.30;;;-2.60;99.90;;;;;;501965;236;28402;-65
2024/01/14 09:14:54;;;;;;;42.95;17.92;;;-2.50;99.90;;;;;;502862;236;27465;-65
2024/01/14 09:16:55;;;;;;;41.25;17.50;;;-2.50;99.90;;;;;;502602;236;27466;-66
2024/01/14 09:18:56;;;;;;;40.00;16.58;;;-2.50;99.90;;;;;;503091;236;27534;-65
2024/01/14 09:20:58;;;;;;;46.17;18.45;;;-2.50;99.90;;;;;;502982;236;27595;-65
2024/01/14 09:22:59;;;;;;;48.15;17.58;;;-2.60;99.90;;;;;;503098;236;27438;-65
2024/01/14 09:25:00;;;;;;;39.25;16.45;;;-2.70;99.90;;;;;;503004;236;27916;-65
2024/01/14 09:27:03;;;;;;;42.62;17.87;;;-2.70;99.90;;;;;;503098;236;27945;-65
2024/01/14 09:29:03;;;;;;;42.15;17.15;;;-2.70;99.90;;;;;;503005;236;27450;-65
2024/01/14 09:31:04;;;;;;;42.83;18.08;;;-2.70;99.90;;;;;;503106;236;27475;-66
2024/01/14 09:33:05;;;;;;;42.67;18.60;;;-2.70;99.90;;;;;;503022;236;27502;-66
2024/01/14 09:35:06;;;;;;;48.03;18.90;;;-2.60;99.90;;;;;;503018;236;27478;-65
2024/01/14 09:37:08;;;;;;;43.63;17.55;;;-2.70;99.90;;;;;;503077;236;27923;-65
2024/01/14 09:39:12;;;;;;;43.03;17.40;;;-2.80;99.90;;;;;;503087;236;27907;-65
2024/01/14 09:41:13;;;;;;;41.55;17.60;;;-2.80;99.90;;;;;;503060;236;27449;-65
2024/01/14 09:43:14;;;;;;;46.03;18.80;;;-2.80;99.90;;;;;;503074;236;27573;-65
2024/01/14 09:45:15;;;;;;;39.58;17.48;;;-2.80;99.90;;;;;;503060;236;27599;-67
2024/01/14 09:47:17;;;;;;;36.50;16.75;;;-2.70;99.90;;;;;;503093;236;27997;-65
2024/01/14 09:49:18;;;;;;;50.15;19.30;;;-2.70;99.90;;;;;;503094;236;27564;-66
2024/01/14 09:51:19;;;;;;;35.38;16.30;;;-2.70;99.90;;;;;;503080;236;27495;-65
2024/01/14 09:53:20;;;;;;;39.80;16.60;;;-2.70;99.90;;;;;;503053;236;27445;-65
2024/01/14 09:55:22;;;;;;;41.88;16.83;;;-2.80;99.90;;;;;;503017;236;27489;-66
2024/01/14 09:57:23;;;;;;;43.15;16.75;;;-2.80;99.90;;;;;;503070;236;27431;-65
2024/01/14 09:59:25;;;;;;;38.28;16.65;;;-2.80;99.90;;;;;;503094;236;27959;-66
2024/01/14 10:01:30;;;;;;;34.83;15.93;;;-2.80;99.90;;;;;;503008;236;28624;-65
2024/01/14 10:03:27;;;;;;;33.22;16.05;;;-2.80;99.90;;;;;;502696;236;27521;-65
2024/01/14 10:05:28;;;;;;;39.03;17.50;;;-2.80;99.90;;;;;;503031;236;27471;-66
2024/01/14 10:07:29;;;;;;;33.03;16.02;;;-2.80;99.90;;;;;;503032;236;27462;-65
2024/01/14 10:09:31;;;;;;;35.83;15.65;;;-2.80;99.90;;;;;;503084;236;27476;-65
2024/01/14 10:11:32;;;;;;;35.30;15.55;;;-2.70;99.90;;;;;;503097;236;27958;-66
2024/01/14 10:13:33;;;;;;;40.47;16.80;;;-2.60;99.90;;;;;;503096;236;27906;-65